Austin Reinauer — WCX8055 — position and weather

sailwx.info

Track history (hours):
 
Tides and Currents Weather Stations Pressure Air Temp Water Temp Dewpoint Dewpoint Depression Visibility Wind Speed Wind Dir Waves Ship Positions

Austin Reinauer

Owner: REINAUER TRANSPORTATION CO. LLC, STATEN ISLAND, NY. More information available from US FCC via Universal Licensing System and Coast Guard Vessel Documentation Center.

Last reported at 2017-Sep-22 02:00 UTC. Time now 2017-Sep-22 18:59 UTC.
Position N 40°40' W 074°02'.

Length 33 m; draft 6.7 m.

Type: . MMSI: 366739920.

Date/timePositionNaut miles runAvg speedWind from/ knotsBaromVisibWave heightAir tempDewpointWater temp
2017-Sep-22 02:00N 40°40' W 074°02'0 0.0
2017-Sep-22 01:30N 40°40' W 074°02'0 0.0
2017-Sep-22 01:00N 40°40' W 074°02'0 0.0
2017-Sep-22 00:30N 40°40' W 074°02'0 0.0
2017-Sep-22 00:00N 40°40' W 074°03'0 0.2
2017-Sep-21 23:30N 40°40' W 074°02'0 0.2
2017-Sep-21 23:00N 40°40' W 074°03'0 0.1
2017-Sep-21 22:30N 40°40' W 074°03'0 0.0
2017-Sep-21 22:00N 40°40' W 074°03'0 0.1
2017-Sep-21 21:30N 40°40' W 074°03'0 0.1
2017-Sep-21 21:00N 40°40' W 074°03'0 0.1
2017-Sep-21 20:30N 40°40' W 074°03'3 5.7
2017-Sep-21 20:00N 40°39' W 074°06'4 7.7
2017-Sep-21 19:30N 40°39' W 074°11'3 5.7
2017-Sep-21 18:54N 40°35' W 074°12'4 0.5
2017-Sep-21 11:30N 40°32' W 074°15'0 0.0
2017-Sep-21 10:49N 40°32' W 074°15'0 0.0
2017-Sep-21 10:26N 40°32' W 074°15'0 0.0
2017-Sep-21 09:59N 40°32' W 074°15'0 0.0
2017-Sep-21 09:30N 40°32' W 074°15'0 0.0
2017-Sep-21 09:00N 40°32' W 074°15'0 0.0
2017-Sep-21 08:27N 40°32' W 074°15'0 0.0
2017-Sep-21 07:38N 40°32' W 074°15'0 0.0
2017-Sep-21 07:26N 40°32' W 074°15'0 0.0
2017-Sep-21 01:20N 40°32' W 074°15'0 0.0
2017-Sep-20 23:47N 40°32' W 074°15'0 0.0
2017-Sep-20 23:16N 40°32' W 074°15'0 0.0
2017-Sep-20 22:50N 40°32' W 074°15'0 0.0
2017-Sep-20 22:29N 40°32' W 074°15'0 0.0
2017-Sep-20 21:53N 40°32' W 074°15'0 0.0
2017-Sep-20 21:30N 40°32' W 074°15'0 0.0
2017-Sep-20 17:00N 40°32' W 074°15'0 0.0
2017-Sep-20 14:36N 40°32' W 074°15'0 0.0
2017-Sep-20 14:00N 40°32' W 074°15'0 0.0
2017-Sep-20 13:29N 40°32' W 074°15'0 0.0
2017-Sep-20 12:58N 40°32' W 074°15'0 0.0
2017-Sep-20 12:07N 40°32' W 074°15'0 0.0
2017-Sep-20 11:56N 40°32' W 074°15'0 0.0
2017-Sep-20 11:11N 40°32' W 074°15'0 0.1
2017-Sep-20 10:50N 40°32' W 074°15'0 0.0
2017-Sep-20 10:30N 40°32' W 074°15'4 2.4
2017-Sep-20 08:49N 40°30' W 074°10'4 2.3
2017-Sep-20 07:09N 40°31' W 074°15'2 5.0
2017-Sep-20 06:47N 40°33' W 074°15'1 4.8
2017-Sep-20 06:30N 40°33' W 074°14'3 5.2
2017-Sep-20 06:00N 40°36' W 074°12'3 5.4
2017-Sep-20 05:30N 40°38' W 074°12'4 7.1
2017-Sep-20 05:01N 40°39' W 074°07'2 4.4
2017-Sep-20 04:31N 40°39' W 074°04'3 6.5
2017-Sep-20 04:01N 40°41' W 074°01'510.0
2017-Sep-20 03:30N 40°45' W 073°57'6 9.2
2017-Sep-20 02:51N 40°48' W 073°50'3 7.2
2017-Sep-20 02:28N 40°49' W 073°47'0 0.0
2017-Sep-19 21:20N 40°49' W 073°47'0 0.0
2017-Sep-19 19:53N 40°49' W 073°47'0 0.1
2017-Sep-19 19:26N 40°49' W 073°47'0 0.0
2017-Sep-19 18:05N 40°49' W 073°47'0 0.2
2017-Sep-19 17:59N 40°49' W 073°47'0 0.0
2017-Sep-19 17:11N 40°49' W 073°47'0 0.0
2017-Sep-19 11:08N 40°49' W 073°47'0 0.1
2017-Sep-19 10:55N 40°49' W 073°47'7 0.2
2017-Sep-17 20:29N 40°54' W 073°40'4 8.6
2017-Sep-17 20:00N 40°52' W 073°45'4 8.7
2017-Sep-17 19:30N 40°48' W 073°47'5 9.0
2017-Sep-17 18:59N 40°48' W 073°53'3 7.1
2017-Sep-17 18:31N 40°46' W 073°57'4 7.0
2017-Sep-17 18:01N 40°43' W 073°58'3 6.0
2017-Sep-17 17:31N 40°41' W 074°01'3 6.9
2017-Sep-17 17:00N 40°37' W 074°03'3 7.0
2017-Sep-17 16:31N 40°34' W 074°02'3 6.3
2017-Sep-17 16:01N 40°31' W 073°60'3 6.6
2017-Sep-17 15:30N 40°30' W 073°56'27 8.2
2017-Sep-17 12:14N 40°03' W 073°55'3 8.7
2017-Sep-17 11:51N 39°60' W 073°56'4 8.8
2017-Sep-17 11:26N 39°56' W 073°56'4 8.9
2017-Sep-17 10:59N 39°52' W 073°57'4 8.8
2017-Sep-17 10:30N 39°48' W 073°57'4 8.8
2017-Sep-17 10:00N 39°44' W 073°59'4 8.9
2017-Sep-17 09:30N 39°40' W 074°01'4 8.8
2017-Sep-17 09:00N 39°36' W 074°04'4 8.7
2017-Sep-17 08:30N 39°32' W 074°07'4 8.6
2017-Sep-17 08:00N 39°28' W 074°09'4 8.6
2017-Sep-17 07:30N 39°24' W 074°12'4 8.5
2017-Sep-17 07:00N 39°21' W 074°15'4 8.4
2017-Sep-17 06:29N 39°18' W 074°19'4 8.3
2017-Sep-17 06:00N 39°15' W 074°22'4 8.4
2017-Sep-17 05:29N 39°11' W 074°26'4 8.5
2017-Sep-17 04:59N 39°08' W 074°30'4 8.5
2017-Sep-17 04:30N 39°05' W 074°33'4 8.5
2017-Sep-17 04:00N 39°02' W 074°37'4 8.2
2017-Sep-17 03:30N 38°59' W 074°41'4 8.3
2017-Sep-17 03:00N 38°56' W 074°44'4 8.5
2017-Sep-17 02:30N 38°53' W 074°47'4 8.3
2017-Sep-17 02:00N 38°50' W 074°51'4 8.8
2017-Sep-17 01:30N 38°48' W 074°57'4 8.9
2017-Sep-17 01:00N 38°49' W 075°02'5 9.6
2017-Sep-17 00:30N 38°54' W 075°05'4 8.9
2017-Sep-17 00:00N 38°58' W 075°07'4 8.6
2017-Sep-16 23:30N 39°02' W 075°09'4 8.1
2017-Sep-16 23:00N 39°05' W 075°12'4 7.5
2017-Sep-16 22:30N 39°09' W 075°14'3 7.1
2017-Sep-16 22:00N 39°11' W 075°17'3 6.5
2017-Sep-16 21:30N 39°14' W 075°19'3 6.9
2017-Sep-16 21:01N 39°17' W 075°22'4 7.3
2017-Sep-16 20:31N 39°20' W 075°25'4 8.1
2017-Sep-16 20:00N 39°23' W 075°28'4 8.8
2017-Sep-16 19:31N 39°26' W 075°32'5 9.0
2017-Sep-16 19:01N 39°30' W 075°33'5 9.5
2017-Sep-16 18:31N 39°35' W 075°33'4 8.5
2017-Sep-16 18:01N 39°39' W 075°33'510.1
2017-Sep-16 17:30N 39°44' W 075°30'5 9.3
2017-Sep-16 17:00N 39°48' W 075°26'4 8.7
2017-Sep-16 16:31N 39°50' W 075°22'4 8.7
2017-Sep-16 16:00N 39°51' W 075°16'2 4.9
2017-Sep-16 15:30N 39°52' W 075°13'3 5.8
2017-Sep-16 15:00N 39°53' W 075°10'0 0.2
2017-Sep-16 14:29N 39°53' W 075°10'0 0.0
2017-Sep-16 13:59N 39°53' W 075°10'0 0.0
2017-Sep-16 13:29N 39°53' W 075°10'0 0.0
2017-Sep-16 12:59N 39°53' W 075°10'0 0.0
2017-Sep-16 12:29N 39°53' W 075°10'0 0.0
2017-Sep-16 11:58N 39°53' W 075°10'0 0.0
2017-Sep-16 11:29N 39°53' W 075°10'0 0.0
2017-Sep-16 10:58N 39°53' W 075°10'0 0.0
2017-Sep-16 10:28N 39°53' W 075°10'0 0.0
2017-Sep-16 09:58N 39°53' W 075°10'0 0.0
2017-Sep-16 09:28N 39°53' W 075°10'0 0.0
2017-Sep-16 08:58N 39°53' W 075°10'0 0.0
2017-Sep-16 08:28N 39°53' W 075°10'0 0.0
2017-Sep-16 07:58N 39°53' W 075°10'0 0.0
2017-Sep-16 07:28N 39°53' W 075°10'0 0.0
2017-Sep-16 06:58N 39°53' W 075°10'0 0.0
2017-Sep-16 06:28N 39°53' W 075°10'0 0.0
2017-Sep-16 05:58N 39°53' W 075°10'0 0.0
2017-Sep-16 05:28N 39°53' W 075°10'0 0.0
2017-Sep-16 04:58N 39°53' W 075°10'0 0.0
2017-Sep-16 04:28N 39°53' W 075°10'0 0.0
2017-Sep-16 03:58N 39°53' W 075°10'0 0.0
2017-Sep-16 03:28N 39°53' W 075°10'0 0.0
2017-Sep-16 02:58N 39°53' W 075°10'0 0.0
2017-Sep-16 02:28N 39°53' W 075°10'0 0.0
2017-Sep-16 01:58N 39°53' W 075°10'0 0.0
2017-Sep-16 01:28N 39°53' W 075°10'0 0.0
2017-Sep-16 00:58N 39°53' W 075°10'0 0.0
2017-Sep-16 00:28N 39°53' W 075°10'0 0.0
2017-Sep-15 23:58N 39°53' W 075°10'0 0.0
2017-Sep-15 23:28N 39°53' W 075°10'0 0.0
2017-Sep-15 22:58N 39°53' W 075°10'0 0.0
2017-Sep-15 22:28N 39°53' W 075°10'0 0.0
2017-Sep-15 21:58N 39°53' W 075°10'0 0.0
2017-Sep-15 21:28N 39°53' W 075°10'0 0.0
2017-Sep-15 20:58N 39°53' W 075°10'0 0.0
2017-Sep-15 20:31N 39°53' W 075°10'0 0.0
2017-Sep-15 20:00N 39°53' W 075°10'0 0.0
2017-Sep-15 19:30N 39°53' W 075°10'0 0.3
2017-Sep-15 19:01N 39°53' W 075°10'2 3.6
2017-Sep-15 18:30N 39°53' W 075°12'4 7.0
2017-Sep-15 18:00N 39°51' W 075°16'4 8.1
2017-Sep-15 17:30N 39°50' W 075°21'4 8.1
2017-Sep-15 17:00N 39°48' W 075°26'4 7.7
2017-Sep-15 16:31N 39°45' W 075°29'4 8.3
2017-Sep-15 16:01N 39°41' W 075°31'4 8.2
2017-Sep-15 15:30N 39°38' W 075°34'4 7.3
2017-Sep-15 15:01N 39°34' W 075°33'4 8.1
2017-Sep-15 14:30N 39°30' W 075°33'4 8.2
2017-Sep-15 14:01N 39°26' W 075°32'5 9.2
2017-Sep-15 13:30N 39°23' W 075°28'5 9.3
2017-Sep-15 13:00N 39°19' W 075°24'5 9.6
2017-Sep-15 12:30N 39°16' W 075°20'5 9.4
2017-Sep-15 12:00N 39°12' W 075°17'5 9.5
2017-Sep-15 11:30N 39°08' W 075°13'5 9.7
2017-Sep-15 11:00N 39°04' W 075°10'5 9.8
2017-Sep-15 10:30N 38°59' W 075°08'610.1
2017-Sep-15 09:57N 38°54' W 075°05'610.2
2017-Sep-15 09:24N 38°49' W 075°02'410.2
2017-Sep-15 09:00N 38°49' W 074°57'510.0
2017-Sep-15 08:30N 38°50' W 074°51'5 9.6
2017-Sep-15 08:00N 38°54' W 074°47'5 9.9
2017-Sep-15 07:30N 38°58' W 074°43'5 9.8
2017-Sep-15 07:00N 39°01' W 074°39'5 9.9
2017-Sep-15 06:28N 39°05' W 074°33'5 9.9
2017-Sep-15 05:55N 39°09' W 074°29'13 9.7
2017-Sep-15 04:36N 39°19' W 074°18'1 9.8
2017-Sep-15 04:27N 39°20' W 074°17'4 9.6
2017-Sep-15 04:00N 39°23' W 074°13'5 9.5
2017-Sep-15 03:27N 39°28' W 074°10'4 9.7
2017-Sep-15 03:00N 39°31' W 074°07'5 9.6
2017-Sep-15 02:30N 39°36' W 074°04'5 9.7
2017-Sep-15 02:00N 39°40' W 074°02'5 9.6
2017-Sep-15 01:28N 39°45' W 073°58'5 9.5
2017-Sep-15 00:59N 39°49' W 073°58'31 9.5
2017-Sep-14 21:42N 40°20' W 073°54'3 9.4
2017-Sep-14 21:25N 40°23' W 073°54'4 9.5
2017-Sep-14 21:01N 40°27' W 073°54'4 8.6
2017-Sep-14 20:30N 40°30' W 073°57'4 9.3
2017-Sep-14 20:00N 40°33' W 074°02'4 9.0
2017-Sep-14 19:30N 40°37' W 074°03'3 5.6
2017-Sep-14 18:58N 40°40' W 074°02'0 0.1
2017-Sep-14 18:28N 40°40' W 074°02'0 0.0
2017-Sep-14 17:58N 40°40' W 074°02'0 0.0
2017-Sep-14 17:25N 40°40' W 074°02'0 0.0
2017-Sep-14 16:58N 40°40' W 074°02'0 0.1
2017-Sep-14 16:28N 40°40' W 074°02'0 0.1
2017-Sep-14 15:58N 40°40' W 074°02'0 0.2
2017-Sep-14 15:28N 40°40' W 074°02'0 0.2
2017-Sep-14 14:58N 40°40' W 074°02'0 0.0
2017-Sep-14 14:28N 40°40' W 074°02'0 0.0
2017-Sep-14 13:58N 40°40' W 074°02'0 0.0
2017-Sep-14 13:28N 40°40' W 074°02'0 0.0
2017-Sep-14 12:58N 40°40' W 074°02'0 0.0
2017-Sep-14 12:28N 40°40' W 074°02'0 0.0
2017-Sep-14 11:58N 40°40' W 074°02'0 0.0
2017-Sep-14 11:28N 40°40' W 074°02'0 0.0
2017-Sep-14 10:58N 40°40' W 074°02'0 0.0
2017-Sep-14 10:28N 40°40' W 074°02'0 0.1
2017-Sep-14 09:58N 40°40' W 074°02'0 0.2
2017-Sep-14 09:28N 40°40' W 074°02'0 0.1
2017-Sep-14 08:58N 40°40' W 074°02'0 0.0
2017-Sep-14 08:28N 40°40' W 074°02'0 0.0
2017-Sep-14 07:58N 40°40' W 074°02'0 0.0
2017-Sep-14 07:28N 40°40' W 074°02'0 0.0
2017-Sep-14 07:01N 40°40' W 074°02'0 0.0
2017-Sep-14 06:31N 40°40' W 074°02'0 0.0
2017-Sep-14 06:01N 40°40' W 074°02'0 0.0
2017-Sep-14 05:30N 40°40' W 074°02'0 0.0
2017-Sep-14 05:00N 40°40' W 074°02'0 0.1
2017-Sep-14 04:30N 40°40' W 074°02'0 0.0
2017-Sep-14 04:00N 40°40' W 074°02'0 0.2
2017-Sep-14 03:30N 40°40' W 074°02'0 0.1
2017-Sep-14 03:00N 40°40' W 074°02'0 0.1
2017-Sep-14 02:30N 40°40' W 074°02'0 0.0
2017-Sep-14 02:00N 40°40' W 074°02'0 0.0
2017-Sep-14 01:30N 40°40' W 074°02'0 0.0
2017-Sep-14 01:00N 40°40' W 074°02'0 0.0
2017-Sep-14 00:30N 40°40' W 074°02'0 0.0
2017-Sep-14 00:00N 40°40' W 074°02'0 0.0
2017-Sep-13 23:30N 40°40' W 074°02'0 0.0
2017-Sep-13 22:57N 40°40' W 074°02'0 0.0
2017-Sep-13 22:30N 40°40' W 074°02'0 0.0
2017-Sep-13 22:00N 40°40' W 074°02'0 0.0
2017-Sep-13 21:30N 40°40' W 074°02'0 0.1
2017-Sep-13 21:00N 40°40' W 074°02'1 1.5
2017-Sep-13 20:28N 40°40' W 074°01'0 0.0
2017-Sep-13 19:58N 40°40' W 074°01'0 0.0
2017-Sep-13 19:28N 40°40' W 074°01'0 0.0
2017-Sep-13 18:58N 40°40' W 074°01'0 0.0
2017-Sep-13 18:28N 40°40' W 074°01'0 0.1
2017-Sep-13 17:58N 40°40' W 074°01'3 5.7
2017-Sep-13 17:31N 40°38' W 074°03'3 5.3
2017-Sep-13 17:00N 40°40' W 074°02'0 0.1
2017-Sep-13 16:29N 40°40' W 074°02'0 0.1
2017-Sep-13 15:59N 40°40' W 074°02'0 0.2
2017-Sep-13 15:28N 40°40' W 074°02'0 0.1
2017-Sep-13 14:58N 40°40' W 074°02'0 0.1
2017-Sep-13 14:28N 40°40' W 074°02'0 0.1
2017-Sep-13 13:58N 40°40' W 074°02'0 0.0
2017-Sep-13 13:28N 40°40' W 074°02'0 0.0
2017-Sep-13 12:58N 40°40' W 074°02'0 0.0
2017-Sep-13 12:28N 40°40' W 074°02'0 0.0
2017-Sep-13 11:58N 40°40' W 074°02'0 0.0
2017-Sep-13 11:28N 40°40' W 074°02'0 0.0
2017-Sep-13 10:58N 40°40' W 074°02'0 0.0
2017-Sep-13 10:28N 40°40' W 074°02'0 0.0
2017-Sep-13 09:58N 40°40' W 074°02'0 0.0
2017-Sep-13 09:28N 40°40' W 074°02'0 0.0
2017-Sep-13 08:58N 40°40' W 074°02'0 0.3
2017-Sep-13 08:28N 40°40' W 074°02'0 0.1
2017-Sep-13 07:58N 40°40' W 074°02'0 0.0
2017-Sep-13 07:28N 40°40' W 074°02'0 0.0
2017-Sep-13 06:58N 40°40' W 074°02'0 0.0
2017-Sep-13 06:28N 40°40' W 074°02'0 0.0
2017-Sep-13 05:58N 40°40' W 074°02'0 0.0
2017-Sep-13 05:28N 40°40' W 074°02'0 0.1
2017-Sep-13 04:58N 40°40' W 074°02'0 0.0
2017-Sep-13 04:28N 40°40' W 074°02'0 0.0
2017-Sep-13 03:58N 40°40' W 074°02'0 0.1
2017-Sep-13 03:28N 40°40' W 074°02'2 4.4
2017-Sep-13 03:00N 40°39' W 074°04'2 3.9
2017-Sep-13 02:28N 40°39' W 074°07'0 0.0
2017-Sep-13 01:58N 40°39' W 074°07'0 0.0
2017-Sep-13 01:28N 40°39' W 074°07'0 0.0
2017-Sep-13 00:58N 40°39' W 074°07'0 0.0
2017-Sep-13 00:28N 40°39' W 074°07'0 0.0
2017-Sep-12 23:58N 40°39' W 074°07'0 0.0
2017-Sep-12 23:28N 40°39' W 074°07'0 0.0
2017-Sep-12 22:58N 40°39' W 074°07'0 0.0
2017-Sep-12 22:28N 40°39' W 074°07'2 3.9
2017-Sep-12 22:00N 40°39' W 074°04'2 3.9
2017-Sep-12 21:29N 40°40' W 074°02'0 0.1
2017-Sep-12 20:59N 40°40' W 074°02'0 0.0
2017-Sep-12 20:29N 40°40' W 074°02'0 0.1
2017-Sep-12 19:59N 40°40' W 074°02'0 0.2
2017-Sep-12 19:29N 40°40' W 074°02'0 0.1
2017-Sep-12 18:59N 40°40' W 074°02'0 0.0
2017-Sep-12 18:29N 40°40' W 074°02'0 0.0
2017-Sep-12 17:59N 40°40' W 074°02'0 0.0
2017-Sep-12 17:29N 40°40' W 074°02'2 3.7
2017-Sep-12 17:00N 40°39' W 074°04'3 6.0
2017-Sep-12 16:28N 40°38' W 074°08'0 0.0
2017-Sep-12 15:58N 40°38' W 074°08'0 0.0
2017-Sep-12 15:28N 40°38' W 074°08'0 0.0
2017-Sep-12 14:58N 40°38' W 074°08'0 0.0
2017-Sep-12 14:22N 40°38' W 074°08'0 0.0
2017-Sep-12 13:58N 40°38' W 074°08'0 0.0
2017-Sep-12 13:28N 40°38' W 074°08'0 0.0
2017-Sep-12 12:52N 40°38' W 074°08'0 0.2
2017-Sep-12 12:30N 40°38' W 074°08'5 9.3
2017-Sep-12 12:00N 40°40' W 074°02'0 0.1
2017-Sep-12 11:30N 40°40' W 074°02'0 0.0
2017-Sep-12 11:00N 40°40' W 074°02'0 0.0
2017-Sep-12 10:30N 40°40' W 074°02'0 0.0
2017-Sep-12 10:00N 40°40' W 074°02'0 0.0
2017-Sep-12 09:30N 40°40' W 074°02'0 0.0
2017-Sep-12 09:00N 40°40' W 074°02'0 0.0
2017-Sep-12 08:30N 40°40' W 074°02'0 0.0
2017-Sep-12 08:00N 40°40' W 074°02'0 0.2
2017-Sep-12 07:30N 40°40' W 074°02'0 0.2
2017-Sep-12 07:00N 40°40' W 074°02'0 0.0
2017-Sep-12 06:30N 40°40' W 074°02'0 0.1
2017-Sep-12 06:00N 40°40' W 074°02'0 0.0
2017-Sep-12 05:30N 40°40' W 074°02'0 0.0
2017-Sep-12 05:00N 40°40' W 074°02'0 0.0
2017-Sep-12 04:30N 40°40' W 074°02'0 0.0
2017-Sep-12 04:00N 40°40' W 074°02'0 0.0
2017-Sep-12 03:30N 40°40' W 074°02'0 0.1
2017-Sep-12 03:00N 40°40' W 074°02'0 0.1
2017-Sep-12 02:30N 40°40' W 074°02'  
Track history (hours):
 
Tides and Currents Weather Stations Pressure Air Temp Water Temp Dewpoint Dewpoint Depression Visibility Wind Speed Wind Dir Waves Ship Positions

Austin Reinauer

Owner: REINAUER TRANSPORTATION CO. LLC, STATEN ISLAND, NY. More information available from US FCC via Universal Licensing System and Coast Guard Vessel Documentation Center.

Last reported at 2017-Sep-22 02:00 UTC. Time now 2017-Sep-22 18:59 UTC.
Position N 40°40' W 074°02'.

Length 33 m; draft 6.7 m.

Type: . MMSI: 366739920.

Date/timePositionNaut miles runAvg speedWind from/ knotsBaromVisibWave heightAir tempDewpointWater temp
2017-Sep-22 02:00N 40°40' W 074°02'0 0.0
2017-Sep-22 01:30N 40°40' W 074°02'0 0.0
2017-Sep-22 01:00N 40°40' W 074°02'0 0.0
2017-Sep-22 00:30N 40°40' W 074°02'0 0.0
2017-Sep-22 00:00N 40°40' W 074°03'0 0.2
2017-Sep-21 23:30N 40°40' W 074°02'0 0.2
2017-Sep-21 23:00N 40°40' W 074°03'0 0.1
2017-Sep-21 22:30N 40°40' W 074°03'0 0.0
2017-Sep-21 22:00N 40°40' W 074°03'0 0.1
2017-Sep-21 21:30N 40°40' W 074°03'0 0.1
2017-Sep-21 21:00N 40°40' W 074°03'0 0.1
2017-Sep-21 20:30N 40°40' W 074°03'3 5.7
2017-Sep-21 20:00N 40°39' W 074°06'4 7.7
2017-Sep-21 19:30N 40°39' W 074°11'3 5.7
2017-Sep-21 18:54N 40°35' W 074°12'4 0.5
2017-Sep-21 11:30N 40°32' W 074°15'0 0.0
2017-Sep-21 10:49N 40°32' W 074°15'0 0.0
2017-Sep-21 10:26N 40°32' W 074°15'0 0.0
2017-Sep-21 09:59N 40°32' W 074°15'0 0.0
2017-Sep-21 09:30N 40°32' W 074°15'0 0.0
2017-Sep-21 09:00N 40°32' W 074°15'0 0.0
2017-Sep-21 08:27N 40°32' W 074°15'0 0.0
2017-Sep-21 07:38N 40°32' W 074°15'0 0.0
2017-Sep-21 07:26N 40°32' W 074°15'0 0.0
2017-Sep-21 01:20N 40°32' W 074°15'0 0.0
2017-Sep-20 23:47N 40°32' W 074°15'0 0.0
2017-Sep-20 23:16N 40°32' W 074°15'0 0.0
2017-Sep-20 22:50N 40°32' W 074°15'0 0.0
2017-Sep-20 22:29N 40°32' W 074°15'0 0.0
2017-Sep-20 21:53N 40°32' W 074°15'0 0.0
2017-Sep-20 21:30N 40°32' W 074°15'0 0.0
2017-Sep-20 17:00N 40°32' W 074°15'0 0.0
2017-Sep-20 14:36N 40°32' W 074°15'0 0.0
2017-Sep-20 14:00N 40°32' W 074°15'0 0.0
2017-Sep-20 13:29N 40°32' W 074°15'0 0.0
2017-Sep-20 12:58N 40°32' W 074°15'0 0.0
2017-Sep-20 12:07N 40°32' W 074°15'0 0.0
2017-Sep-20 11:56N 40°32' W 074°15'0 0.0
2017-Sep-20 11:11N 40°32' W 074°15'0 0.1
2017-Sep-20 10:50N 40°32' W 074°15'0 0.0
2017-Sep-20 10:30N 40°32' W 074°15'4 2.4
2017-Sep-20 08:49N 40°30' W 074°10'4 2.3
2017-Sep-20 07:09N 40°31' W 074°15'2 5.0
2017-Sep-20 06:47N 40°33' W 074°15'1 4.8
2017-Sep-20 06:30N 40°33' W 074°14'3 5.2
2017-Sep-20 06:00N 40°36' W 074°12'3 5.4
2017-Sep-20 05:30N 40°38' W 074°12'4 7.1
2017-Sep-20 05:01N 40°39' W 074°07'2 4.4
2017-Sep-20 04:31N 40°39' W 074°04'3 6.5
2017-Sep-20 04:01N 40°41' W 074°01'510.0
2017-Sep-20 03:30N 40°45' W 073°57'6 9.2
2017-Sep-20 02:51N 40°48' W 073°50'3 7.2
2017-Sep-20 02:28N 40°49' W 073°47'0 0.0
2017-Sep-19 21:20N 40°49' W 073°47'0 0.0
2017-Sep-19 19:53N 40°49' W 073°47'0 0.1
2017-Sep-19 19:26N 40°49' W 073°47'0 0.0
2017-Sep-19 18:05N 40°49' W 073°47'0 0.2
2017-Sep-19 17:59N 40°49' W 073°47'0 0.0
2017-Sep-19 17:11N 40°49' W 073°47'0 0.0
2017-Sep-19 11:08N 40°49' W 073°47'0 0.1
2017-Sep-19 10:55N 40°49' W 073°47'7 0.2
2017-Sep-17 20:29N 40°54' W 073°40'4 8.6
2017-Sep-17 20:00N 40°52' W 073°45'4 8.7
2017-Sep-17 19:30N 40°48' W 073°47'5 9.0
2017-Sep-17 18:59N 40°48' W 073°53'3 7.1
2017-Sep-17 18:31N 40°46' W 073°57'4 7.0
2017-Sep-17 18:01N 40°43' W 073°58'3 6.0
2017-Sep-17 17:31N 40°41' W 074°01'3 6.9
2017-Sep-17 17:00N 40°37' W 074°03'3 7.0
2017-Sep-17 16:31N 40°34' W 074°02'3 6.3
2017-Sep-17 16:01N 40°31' W 073°60'3 6.6
2017-Sep-17 15:30N 40°30' W 073°56'27 8.2
2017-Sep-17 12:14N 40°03' W 073°55'3 8.7
2017-Sep-17 11:51N 39°60' W 073°56'4 8.8
2017-Sep-17 11:26N 39°56' W 073°56'4 8.9
2017-Sep-17 10:59N 39°52' W 073°57'4 8.8
2017-Sep-17 10:30N 39°48' W 073°57'4 8.8
2017-Sep-17 10:00N 39°44' W 073°59'4 8.9
2017-Sep-17 09:30N 39°40' W 074°01'4 8.8
2017-Sep-17 09:00N 39°36' W 074°04'4 8.7
2017-Sep-17 08:30N 39°32' W 074°07'4 8.6
2017-Sep-17 08:00N 39°28' W 074°09'4 8.6
2017-Sep-17 07:30N 39°24' W 074°12'4 8.5
2017-Sep-17 07:00N 39°21' W 074°15'4 8.4
2017-Sep-17 06:29N 39°18' W 074°19'4 8.3
2017-Sep-17 06:00N 39°15' W 074°22'4 8.4
2017-Sep-17 05:29N 39°11' W 074°26'4 8.5
2017-Sep-17 04:59N 39°08' W 074°30'4 8.5
2017-Sep-17 04:30N 39°05' W 074°33'4 8.5
2017-Sep-17 04:00N 39°02' W 074°37'4 8.2
2017-Sep-17 03:30N 38°59' W 074°41'4 8.3
2017-Sep-17 03:00N 38°56' W 074°44'4 8.5
2017-Sep-17 02:30N 38°53' W 074°47'4 8.3
2017-Sep-17 02:00N 38°50' W 074°51'4 8.8
2017-Sep-17 01:30N 38°48' W 074°57'4 8.9
2017-Sep-17 01:00N 38°49' W 075°02'5 9.6
2017-Sep-17 00:30N 38°54' W 075°05'4 8.9
2017-Sep-17 00:00N 38°58' W 075°07'4 8.6
2017-Sep-16 23:30N 39°02' W 075°09'4 8.1
2017-Sep-16 23:00N 39°05' W 075°12'4 7.5
2017-Sep-16 22:30N 39°09' W 075°14'3 7.1
2017-Sep-16 22:00N 39°11' W 075°17'3 6.5
2017-Sep-16 21:30N 39°14' W 075°19'3 6.9
2017-Sep-16 21:01N 39°17' W 075°22'4 7.3
2017-Sep-16 20:31N 39°20' W 075°25'4 8.1
2017-Sep-16 20:00N 39°23' W 075°28'4 8.8
2017-Sep-16 19:31N 39°26' W 075°32'5 9.0
2017-Sep-16 19:01N 39°30' W 075°33'5 9.5
2017-Sep-16 18:31N 39°35' W 075°33'4 8.5
2017-Sep-16 18:01N 39°39' W 075°33'510.1
2017-Sep-16 17:30N 39°44' W 075°30'5 9.3
2017-Sep-16 17:00N 39°48' W 075°26'4 8.7
2017-Sep-16 16:31N 39°50' W 075°22'4 8.7
2017-Sep-16 16:00N 39°51' W 075°16'2 4.9
2017-Sep-16 15:30N 39°52' W 075°13'3 5.8
2017-Sep-16 15:00N 39°53' W 075°10'0 0.2
2017-Sep-16 14:29N 39°53' W 075°10'0 0.0
2017-Sep-16 13:59N 39°53' W 075°10'0 0.0
2017-Sep-16 13:29N 39°53' W 075°10'0 0.0
2017-Sep-16 12:59N 39°53' W 075°10'0 0.0
2017-Sep-16 12:29N 39°53' W 075°10'0 0.0
2017-Sep-16 11:58N 39°53' W 075°10'0 0.0
2017-Sep-16 11:29N 39°53' W 075°10'0 0.0
2017-Sep-16 10:58N 39°53' W 075°10'0 0.0
2017-Sep-16 10:28N 39°53' W 075°10'0 0.0
2017-Sep-16 09:58N 39°53' W 075°10'0 0.0
2017-Sep-16 09:28N 39°53' W 075°10'0 0.0
2017-Sep-16 08:58N 39°53' W 075°10'0 0.0
2017-Sep-16 08:28N 39°53' W 075°10'0 0.0
2017-Sep-16 07:58N 39°53' W 075°10'0 0.0
2017-Sep-16 07:28N 39°53' W 075°10'0 0.0
2017-Sep-16 06:58N 39°53' W 075°10'0 0.0
2017-Sep-16 06:28N 39°53' W 075°10'0 0.0
2017-Sep-16 05:58N 39°53' W 075°10'0 0.0
2017-Sep-16 05:28N 39°53' W 075°10'0 0.0
2017-Sep-16 04:58N 39°53' W 075°10'0 0.0
2017-Sep-16 04:28N 39°53' W 075°10'0 0.0
2017-Sep-16 03:58N 39°53' W 075°10'0 0.0
2017-Sep-16 03:28N 39°53' W 075°10'0 0.0
2017-Sep-16 02:58N 39°53' W 075°10'0 0.0
2017-Sep-16 02:28N 39°53' W 075°10'0 0.0
2017-Sep-16 01:58N 39°53' W 075°10'0 0.0
2017-Sep-16 01:28N 39°53' W 075°10'0 0.0
2017-Sep-16 00:58N 39°53' W 075°10'0 0.0
2017-Sep-16 00:28N 39°53' W 075°10'0 0.0
2017-Sep-15 23:58N 39°53' W 075°10'0 0.0
2017-Sep-15 23:28N 39°53' W 075°10'0 0.0
2017-Sep-15 22:58N 39°53' W 075°10'0 0.0
2017-Sep-15 22:28N 39°53' W 075°10'0 0.0
2017-Sep-15 21:58N 39°53' W 075°10'0 0.0
2017-Sep-15 21:28N 39°53' W 075°10'0 0.0
2017-Sep-15 20:58N 39°53' W 075°10'0 0.0
2017-Sep-15 20:31N 39°53' W 075°10'0 0.0
2017-Sep-15 20:00N 39°53' W 075°10'0 0.0
2017-Sep-15 19:30N 39°53' W 075°10'0 0.3
2017-Sep-15 19:01N 39°53' W 075°10'2 3.6
2017-Sep-15 18:30N 39°53' W 075°12'4 7.0
2017-Sep-15 18:00N 39°51' W 075°16'4 8.1
2017-Sep-15 17:30N 39°50' W 075°21'4 8.1
2017-Sep-15 17:00N 39°48' W 075°26'4 7.7
2017-Sep-15 16:31N 39°45' W 075°29'4 8.3
2017-Sep-15 16:01N 39°41' W 075°31'4 8.2
2017-Sep-15 15:30N 39°38' W 075°34'4 7.3
2017-Sep-15 15:01N 39°34' W 075°33'4 8.1
2017-Sep-15 14:30N 39°30' W 075°33'4 8.2
2017-Sep-15 14:01N 39°26' W 075°32'5 9.2
2017-Sep-15 13:30N 39°23' W 075°28'5 9.3
2017-Sep-15 13:00N 39°19' W 075°24'5 9.6
2017-Sep-15 12:30N 39°16' W 075°20'5 9.4
2017-Sep-15 12:00N 39°12' W 075°17'5 9.5
2017-Sep-15 11:30N 39°08' W 075°13'5 9.7
2017-Sep-15 11:00N 39°04' W 075°10'5 9.8
2017-Sep-15 10:30N 38°59' W 075°08'610.1
2017-Sep-15 09:57N 38°54' W 075°05'610.2
2017-Sep-15 09:24N 38°49' W 075°02'410.2
2017-Sep-15 09:00N 38°49' W 074°57'510.0
2017-Sep-15 08:30N 38°50' W 074°51'5 9.6
2017-Sep-15 08:00N 38°54' W 074°47'5 9.9
2017-Sep-15 07:30N 38°58' W 074°43'5 9.8
2017-Sep-15 07:00N 39°01' W 074°39'5 9.9
2017-Sep-15 06:28N 39°05' W 074°33'5 9.9
2017-Sep-15 05:55N 39°09' W 074°29'13 9.7
2017-Sep-15 04:36N 39°19' W 074°18'1 9.8
2017-Sep-15 04:27N 39°20' W 074°17'4 9.6
2017-Sep-15 04:00N 39°23' W 074°13'5 9.5
2017-Sep-15 03:27N 39°28' W 074°10'4 9.7
2017-Sep-15 03:00N 39°31' W 074°07'5 9.6
2017-Sep-15 02:30N 39°36' W 074°04'5 9.7
2017-Sep-15 02:00N 39°40' W 074°02'5 9.6
2017-Sep-15 01:28N 39°45' W 073°58'5 9.5
2017-Sep-15 00:59N 39°49' W 073°58'31 9.5
2017-Sep-14 21:42N 40°20' W 073°54'3 9.4
2017-Sep-14 21:25N 40°23' W 073°54'4 9.5
2017-Sep-14 21:01N 40°27' W 073°54'4 8.6
2017-Sep-14 20:30N 40°30' W 073°57'4 9.3
2017-Sep-14 20:00N 40°33' W 074°02'4 9.0
2017-Sep-14 19:30N 40°37' W 074°03'3 5.6
2017-Sep-14 18:58N 40°40' W 074°02'0 0.1
2017-Sep-14 18:28N 40°40' W 074°02'0 0.0
2017-Sep-14 17:58N 40°40' W 074°02'0 0.0
2017-Sep-14 17:25N 40°40' W 074°02'0 0.0
2017-Sep-14 16:58N 40°40' W 074°02'0 0.1
2017-Sep-14 16:28N 40°40' W 074°02'0 0.1
2017-Sep-14 15:58N 40°40' W 074°02'0 0.2
2017-Sep-14 15:28N 40°40' W 074°02'0 0.2
2017-Sep-14 14:58N 40°40' W 074°02'0 0.0
2017-Sep-14 14:28N 40°40' W 074°02'0 0.0
2017-Sep-14 13:58N 40°40' W 074°02'0 0.0
2017-Sep-14 13:28N 40°40' W 074°02'0 0.0
2017-Sep-14 12:58N 40°40' W 074°02'0 0.0
2017-Sep-14 12:28N 40°40' W 074°02'0 0.0
2017-Sep-14 11:58N 40°40' W 074°02'0 0.0
2017-Sep-14 11:28N 40°40' W 074°02'0 0.0
2017-Sep-14 10:58N 40°40' W 074°02'0 0.0
2017-Sep-14 10:28N 40°40' W 074°02'0 0.1
2017-Sep-14 09:58N 40°40' W 074°02'0 0.2
2017-Sep-14 09:28N 40°40' W 074°02'0 0.1
2017-Sep-14 08:58N 40°40' W 074°02'0 0.0
2017-Sep-14 08:28N 40°40' W 074°02'0 0.0
2017-Sep-14 07:58N 40°40' W 074°02'0 0.0
2017-Sep-14 07:28N 40°40' W 074°02'0 0.0
2017-Sep-14 07:01N 40°40' W 074°02'0 0.0
2017-Sep-14 06:31N 40°40' W 074°02'0 0.0
2017-Sep-14 06:01N 40°40' W 074°02'0 0.0
2017-Sep-14 05:30N 40°40' W 074°02'0 0.0
2017-Sep-14 05:00N 40°40' W 074°02'0 0.1
2017-Sep-14 04:30N 40°40' W 074°02'0 0.0
2017-Sep-14 04:00N 40°40' W 074°02'0 0.2
2017-Sep-14 03:30N 40°40' W 074°02'0 0.1
2017-Sep-14 03:00N 40°40' W 074°02'0 0.1
2017-Sep-14 02:30N 40°40' W 074°02'0 0.0
2017-Sep-14 02:00N 40°40' W 074°02'0 0.0
2017-Sep-14 01:30N 40°40' W 074°02'0 0.0
2017-Sep-14 01:00N 40°40' W 074°02'0 0.0
2017-Sep-14 00:30N 40°40' W 074°02'0 0.0
2017-Sep-14 00:00N 40°40' W 074°02'0 0.0
2017-Sep-13 23:30N 40°40' W 074°02'0 0.0
2017-Sep-13 22:57N 40°40' W 074°02'0 0.0
2017-Sep-13 22:30N 40°40' W 074°02'0 0.0
2017-Sep-13 22:00N 40°40' W 074°02'0 0.0
2017-Sep-13 21:30N 40°40' W 074°02'0 0.1
2017-Sep-13 21:00N 40°40' W 074°02'1 1.5
2017-Sep-13 20:28N 40°40' W 074°01'0 0.0
2017-Sep-13 19:58N 40°40' W 074°01'0 0.0
2017-Sep-13 19:28N 40°40' W 074°01'0 0.0
2017-Sep-13 18:58N 40°40' W 074°01'0 0.0
2017-Sep-13 18:28N 40°40' W 074°01'0 0.1
2017-Sep-13 17:58N 40°40' W 074°01'3 5.7
2017-Sep-13 17:31N 40°38' W 074°03'3 5.3
2017-Sep-13 17:00N 40°40' W 074°02'0 0.1
2017-Sep-13 16:29N 40°40' W 074°02'0 0.1
2017-Sep-13 15:59N 40°40' W 074°02'0 0.2
2017-Sep-13 15:28N 40°40' W 074°02'0 0.1
2017-Sep-13 14:58N 40°40' W 074°02'0 0.1
2017-Sep-13 14:28N 40°40' W 074°02'0 0.1
2017-Sep-13 13:58N 40°40' W 074°02'0 0.0
2017-Sep-13 13:28N 40°40' W 074°02'0 0.0
2017-Sep-13 12:58N 40°40' W 074°02'0 0.0
2017-Sep-13 12:28N 40°40' W 074°02'0 0.0
2017-Sep-13 11:58N 40°40' W 074°02'0 0.0
2017-Sep-13 11:28N 40°40' W 074°02'0 0.0
2017-Sep-13 10:58N 40°40' W 074°02'0 0.0
2017-Sep-13 10:28N 40°40' W 074°02'0 0.0
2017-Sep-13 09:58N 40°40' W 074°02'0 0.0
2017-Sep-13 09:28N 40°40' W 074°02'0 0.0
2017-Sep-13 08:58N 40°40' W 074°02'0 0.3
2017-Sep-13 08:28N 40°40' W 074°02'0 0.1
2017-Sep-13 07:58N 40°40' W 074°02'0 0.0
2017-Sep-13 07:28N 40°40' W 074°02'0 0.0
2017-Sep-13 06:58N 40°40' W 074°02'0 0.0
2017-Sep-13 06:28N 40°40' W 074°02'0 0.0
2017-Sep-13 05:58N 40°40' W 074°02'0 0.0
2017-Sep-13 05:28N 40°40' W 074°02'0 0.1
2017-Sep-13 04:58N 40°40' W 074°02'0 0.0
2017-Sep-13 04:28N 40°40' W 074°02'0 0.0
2017-Sep-13 03:58N 40°40' W 074°02'0 0.1
2017-Sep-13 03:28N 40°40' W 074°02'2 4.4
2017-Sep-13 03:00N 40°39' W 074°04'2 3.9
2017-Sep-13 02:28N 40°39' W 074°07'0 0.0
2017-Sep-13 01:58N 40°39' W 074°07'0 0.0
2017-Sep-13 01:28N 40°39' W 074°07'0 0.0
2017-Sep-13 00:58N 40°39' W 074°07'0 0.0
2017-Sep-13 00:28N 40°39' W 074°07'0 0.0
2017-Sep-12 23:58N 40°39' W 074°07'0 0.0
2017-Sep-12 23:28N 40°39' W 074°07'0 0.0
2017-Sep-12 22:58N 40°39' W 074°07'0 0.0
2017-Sep-12 22:28N 40°39' W 074°07'2 3.9
2017-Sep-12 22:00N 40°39' W 074°04'2 3.9
2017-Sep-12 21:29N 40°40' W 074°02'0 0.1
2017-Sep-12 20:59N 40°40' W 074°02'0 0.0
2017-Sep-12 20:29N 40°40' W 074°02'0 0.1
2017-Sep-12 19:59N 40°40' W 074°02'0 0.2
2017-Sep-12 19:29N 40°40' W 074°02'0 0.1
2017-Sep-12 18:59N 40°40' W 074°02'0 0.0
2017-Sep-12 18:29N 40°40' W 074°02'0 0.0
2017-Sep-12 17:59N 40°40' W 074°02'0 0.0
2017-Sep-12 17:29N 40°40' W 074°02'2 3.7
2017-Sep-12 17:00N 40°39' W 074°04'3 6.0
2017-Sep-12 16:28N 40°38' W 074°08'0 0.0
2017-Sep-12 15:58N 40°38' W 074°08'0 0.0
2017-Sep-12 15:28N 40°38' W 074°08'0 0.0
2017-Sep-12 14:58N 40°38' W 074°08'0 0.0
2017-Sep-12 14:22N 40°38' W 074°08'0 0.0
2017-Sep-12 13:58N 40°38' W 074°08'0 0.0
2017-Sep-12 13:28N 40°38' W 074°08'0 0.0
2017-Sep-12 12:52N 40°38' W 074°08'0 0.2
2017-Sep-12 12:30N 40°38' W 074°08'5 9.3
2017-Sep-12 12:00N 40°40' W 074°02'0 0.1
2017-Sep-12 11:30N 40°40' W 074°02'0 0.0
2017-Sep-12 11:00N 40°40' W 074°02'0 0.0
2017-Sep-12 10:30N 40°40' W 074°02'0 0.0
2017-Sep-12 10:00N 40°40' W 074°02'0 0.0
2017-Sep-12 09:30N 40°40' W 074°02'0 0.0
2017-Sep-12 09:00N 40°40' W 074°02'0 0.0
2017-Sep-12 08:30N 40°40' W 074°02'0 0.0
2017-Sep-12 08:00N 40°40' W 074°02'0 0.2
2017-Sep-12 07:30N 40°40' W 074°02'0 0.2
2017-Sep-12 07:00N 40°40' W 074°02'0 0.0
2017-Sep-12 06:30N 40°40' W 074°02'0 0.1
2017-Sep-12 06:00N 40°40' W 074°02'0 0.0
2017-Sep-12 05:30N 40°40' W 074°02'0 0.0
2017-Sep-12 05:00N 40°40' W 074°02'0 0.0
2017-Sep-12 04:30N 40°40' W 074°02'0 0.0
2017-Sep-12 04:00N 40°40' W 074°02'0 0.0
2017-Sep-12 03:30N 40°40' W 074°02'0 0.1
2017-Sep-12 03:00N 40°40' W 074°02'0 0.1
2017-Sep-12 02:30N 40°40' W 074°02'  

Dump ship's entire track history